createdAt,value
2018-09-29T04:14:34.339Z,3.50
2018-09-29T04:17:02.389Z,3.50
2018-09-29T04:19:30.456Z,3.40
2018-09-29T06:15:26.856Z,9.20
2018-09-29T06:17:54.905Z,9.30
2018-09-29T06:20:23.066Z,9.60
2018-09-29T06:22:51.276Z,9.80
2018-09-29T06:25:19.400Z,9.90
2018-09-29T06:27:47.474Z,10.00
2018-09-29T06:30:15.523Z,10.30
2018-09-29T06:32:43.578Z,10.30
2018-09-29T06:35:11.632Z,10.30
2018-09-29T06:37:39.693Z,10.20
2018-09-29T06:40:07.799Z,10.00
2018-09-29T06:42:35.920Z,10.00
2018-09-29T06:45:04.354Z,10.00
2018-09-29T06:47:32.448Z,10.20
2018-09-29T06:50:00.492Z,10.40
2018-09-29T06:52:28.567Z,10.50
2018-09-29T06:54:56.664Z,10.70
2018-09-29T06:57:24.727Z,10.80
2018-09-29T06:59:52.804Z,10.90
2018-09-29T07:02:20.856Z,10.80
2018-09-29T07:04:48.924Z,10.40
2018-09-29T07:07:17.084Z,10.20
2018-09-29T07:09:45.205Z,10.10
2018-09-29T07:12:13.278Z,10.20
2018-09-29T07:14:41.381Z,10.30
2018-09-29T07:17:09.480Z,10.30
2018-09-29T07:19:37.564Z,10.00
2018-09-29T07:22:05.639Z,10.60
2018-09-29T07:24:33.691Z,10.60
2018-09-29T07:27:01.797Z,10.80
2018-09-29T07:29:29.835Z,10.60
2018-09-29T07:31:57.905Z,10.80
2018-09-29T07:34:25.964Z,10.80
2018-09-29T07:36:54.182Z,11.10
2018-09-29T07:39:22.252Z,11.30
2018-09-29T07:41:50.312Z,11.50
2018-09-29T07:44:18.399Z,11.40
2018-09-29T07:46:46.480Z,11.40
2018-09-29T07:49:14.584Z,11.60
2018-09-29T07:51:42.621Z,11.50
2018-09-29T07:54:10.709Z,11.60
2018-09-29T07:56:38.922Z,11.50
2018-09-29T07:59:06.979Z,11.70
2018-09-29T08:01:35.137Z,12.00
2018-09-29T08:04:03.205Z,12.20
2018-09-29T08:06:31.399Z,12.40
2018-09-29T08:08:59.361Z,12.70
2018-09-29T08:11:27.485Z,12.90
2018-09-29T08:13:55.565Z,13.10
2018-09-29T08:16:23.637Z,13.30
2018-09-29T08:18:51.692Z,13.30
2018-09-29T08:21:19.753Z,13.40
2018-09-29T08:23:47.840Z,13.50
2018-09-29T08:26:15.918Z,13.70
2018-09-29T08:28:43.985Z,13.90
2018-09-29T08:31:12.072Z,13.80
2018-09-29T08:33:40.170Z,13.80
2018-09-29T08:36:08.256Z,13.70
2018-09-29T08:38:36.319Z,13.70
2018-09-29T08:41:04.387Z,13.70
2018-09-29T08:43:32.422Z,13.90
2018-09-29T08:46:00.488Z,14.10
2018-09-29T08:48:28.537Z,14.10
2018-09-29T08:50:56.694Z,14.30
2018-09-29T08:53:24.805Z,14.50
2018-09-29T08:55:52.907Z,14.70
2018-09-29T08:58:20.952Z,14.80
2018-09-29T09:00:49.088Z,15.00
2018-09-29T09:03:17.136Z,15.00
2018-09-29T09:05:45.160Z,15.10
2018-09-29T09:08:13.288Z,15.00
2018-09-29T09:10:41.624Z,14.70
2018-09-29T09:13:09.720Z,14.50
2018-09-29T09:15:37.956Z,14.60
2018-09-29T09:18:07.040Z,14.80
2018-09-29T09:20:35.221Z,14.70
2018-09-29T09:23:03.324Z,14.70
2018-09-29T09:25:31.471Z,14.80
2018-09-29T09:27:59.541Z,15.20
2018-09-29T09:30:27.633Z,15.30
2018-09-29T09:32:55.821Z,15.40
2018-09-29T09:35:23.892Z,15.20
2018-09-29T09:37:52.036Z,14.90
2018-09-29T09:40:20.107Z,14.70
2018-09-29T09:42:48.679Z,15.00
2018-09-29T09:45:16.777Z,15.40
2018-09-29T09:50:12.760Z,16.00
